Lonetree, Indiana
Current Conditions -  °F | °C
As of 1:53 PM on Thursday 27 Nov 2014 (Local Time) from KHUF Reporting Station
Overcast Overcast  
Wind Chill: 19°   Ceiling: 2000
Heat Index: 29°   Visibility: 10mi
Dew Point: 21°   Wind: 13mph
Humidity: 72%   Direction: 300°WNW
Pressure: 30.38"   Gusts: NA
Location:  39.2016°N, 87.1874°W
Report Text: KHUF 271853Z 30011KT 10SM OVC020 M02/M06 A3038 RMK AO2 SLP296 T10171061
Loading
Personal Weather Stations






























Interactive Weather Map New forecast layout! Learn more

10-Day Weather Forecast

Advertisements
Track Severe Weather on mobile